Time;durP1;ratioP1;P1;durP2;ratioP2;P2;SDS_P1;SDS_P2;PMS_P1;PMS_P2;Temp;Humidity;BMP_temperature;BMP_pressure;BME280_temperature;BME280_humidity;BME280_pressure;Samples;Min_cycle;Max_cycle;Signal;HPM_P1;HPM_P2
2022/02/02 00:00:16;;;;;;;14.13;7.60;;;;;;;2.75;80.33;98965.28;5048909;28;20108;-56
2022/02/02 00:02:50;;;;;;;13.52;7.18;;;;;;;2.18;82.08;98973.38;5048994;28;20036;-55
2022/02/02 00:05:25;;;;;;;12.25;6.40;;;;;;;1.84;82.57;98972.59;5049452;28;20029;-57
2022/02/02 00:10:46;;;;;;;11.45;6.25;;;;;;;1.78;84.66;98962.78;5048945;28;20060;-56
2022/02/02 00:13:13;;;;;;;10.27;5.68;;;;;;;1.66;85.03;98961.50;5049075;28;20052;-55
2022/02/02 00:15:56;;;;;;;10.40;6.05;;;;;;;1.54;85.11;98960.97;5049241;28;20370;-55
2022/02/02 00:18:49;;;;;;;10.50;6.35;;;;;;;1.75;83.44;98957.84;5049039;28;20432;-55
2022/02/02 00:21:41;;;;;;;9.48;5.40;;;;;;;1.52;84.59;98953.28;5048794;28;20082;-55
2022/02/02 00:24:03;;;;;;;7.88;5.13;;;;;;;1.29;85.22;98949.66;5048871;28;20036;-56
2022/02/02 00:26:37;;;;;;;9.00;5.13;;;;;;;1.63;85.07;98948.69;5049143;28;20029;-56
2022/02/02 00:29:17;;;;;;;7.22;4.65;;;;;;;1.81;84.40;98959.00;5048578;28;20664;-57
2022/02/02 00:31:49;;;;;;;8.13;4.53;;;;;;;1.79;83.83;98948.69;5049149;28;20036;-56
2022/02/02 00:34:16;;;;;;;7.85;4.55;;;;;;;1.54;85.10;98932.13;5048968;28;20086;-56
2022/02/02 00:39:10;;;;;;;10.13;4.97;;;;;;;1.95;83.87;98942.56;5048847;28;20035;-56
2022/02/02 00:41:35;;;;;;;8.80;5.15;;;;;;;2.14;83.45;98952.69;5048969;28;20435;-55
2022/02/02 00:44:02;;;;;;;8.50;4.75;;;;;;;2.21;82.02;98952.00;5048928;28;20412;-55
2022/02/02 00:46:29;;;;;;;7.95;5.18;;;;;;;2.34;82.34;98947.03;5050831;28;20029;-56
2022/02/02 00:49:00;;;;;;;7.75;5.07;;;;;;;2.28;81.42;98955.59;5052362;28;20029;-56
2022/02/02 00:51:34;;;;;;;9.23;5.15;;;;;;;2.35;80.64;98922.44;5052464;28;20035;-56
2022/02/02 00:54:00;;;;;;;8.32;4.78;;;;;;;2.57;80.63;98946.31;5051010;28;20039;-55
2022/02/02 00:56:25;;;;;;;9.75;4.85;;;;;;;2.44;79.84;98952.94;5052039;28;20025;-55
2022/02/02 00:58:51;;;;;;;8.93;4.95;;;;;;;2.78;78.65;98950.97;5052122;28;20044;-55
2022/02/02 01:01:16;;;;;;;9.43;5.22;;;;;;;2.52;79.67;98941.56;5051974;28;20028;-55
2022/02/02 01:03:41;;;;;;;8.10;4.95;;;;;;;2.55;79.41;98941.22;5051775;28;20453;-55
2022/02/02 01:06:10;;;;;;;7.75;4.72;;;;;;;2.44;79.73;98931.13;5052151;28;20401;-56
2022/02/02 01:09:13;;;;;;;9.18;4.95;;;;;;;2.53;78.59;98928.28;5051501;28;20041;-56
2022/02/02 01:19:14;;;;;;;8.02;4.65;;;;;;;2.65;79.71;98912.94;5051890;28;20060;-56
2022/02/02 01:29:36;;;;;;;9.70;5.00;;;;;;;3.05;76.81;98913.69;5051732;28;20040;-56
2022/02/02 01:32:01;;;;;;;9.05;4.90;;;;;;;3.03;76.19;98910.41;5051856;28;20439;-57
2022/02/02 01:34:27;;;;;;;8.77;4.82;;;;;;;2.90;76.66;98905.72;5051830;28;20021;-56
2022/02/02 01:36:52;;;;;;;10.52;5.10;;;;;;;2.62;78.26;98904.59;5051583;28;20448;-56
2022/02/02 01:39:20;;;;;;;10.30;4.90;;;;;;;2.52;78.24;98902.97;5051775;28;20036;-56
2022/02/02 01:41:46;;;;;;;8.95;4.55;;;;;;;2.20;78.51;98905.75;5050619;28;20060;-56
2022/02/02 01:44:24;;;;;;;7.95;4.50;;;;;;;2.26;78.42;98903.25;5051367;28;20071;-56
2022/02/02 01:46:52;;;;;;;7.35;4.35;;;;;;;2.39;77.71;98886.16;5051529;28;20112;-56
2022/02/02 01:57:35;;;;;;;6.65;4.50;;;;;;;2.08;77.49;98879.06;5033355;28;20033;-55
2022/02/02 01:59:57;;;;;;;7.25;4.43;;;;;;;1.87;78.46;98877.00;5051082;28;20033;-55
2022/02/02 02:02:22;;;;;;;7.60;4.40;;;;;;;1.82;79.14;98876.69;5049872;28;20408;-56
2022/02/02 02:04:48;;;;;;;7.20;4.47;;;;;;;1.73;78.45;98863.59;5051233;28;20040;-56
2022/02/02 02:07:13;;;;;;;8.38;4.50;;;;;;;1.83;78.74;98855.53;5051044;28;20024;-56
2022/02/02 02:09:39;;;;;;;7.35;4.55;;;;;;;2.07;78.98;98856.41;5049786;28;20049;-56
2022/02/02 02:12:07;;;;;;;10.45;5.43;;;;;;;2.67;79.29;98853.16;5051157;28;20028;-56
2022/02/02 02:17:00;;;;;;;8.98;5.35;;;;;;;3.17;79.31;98845.72;5051078;28;20072;-57
2022/02/02 02:19:26;;;;;;;8.90;5.15;;;;;;;2.75;83.03;98847.03;5050890;28;20055;-57
2022/02/02 02:21:53;;;;;;;8.27;4.70;;;;;;;2.23;82.90;98835.34;5050710;28;20025;-56
2022/02/02 02:24:18;;;;;;;7.88;4.70;;;;;;;1.99;82.88;98835.47;5050593;28;20535;-56
2022/02/02 02:26:44;;;;;;;6.78;4.63;;;;;;;1.88;84.14;98840.06;5050791;28;20025;-56
2022/02/02 02:31:48;;;;;;;7.70;4.90;;;;;;;1.75;86.51;98845.03;5051512;28;20033;-56
2022/02/02 02:37:29;;;;;;;12.95;5.50;;;;;;;1.66;85.09;98844.25;5051044;28;20044;-56
2022/02/02 02:56:01;;;;;;;7.35;4.32;;;;;;;1.88;84.70;98834.03;5050788;28;20044;-56
2022/02/02 03:49:42;;;;;;;8.38;5.55;;;;;;;2.77;75.98;98778.53;5049803;28;20150;-42
2022/02/02 04:02:14;;;;;;;7.78;4.80;;;;;;;2.49;77.08;98771.19;5050280;28;20039;-41
2022/02/02 04:07:09;;;;;;;9.55;5.15;;;;;;;2.67;75.86;98776.97;5049938;28;20025;-42
2022/02/02 04:09:36;;;;;;;9.15;5.32;;;;;;;2.86;75.74;98785.38;5049401;28;20029;-41
2022/02/02 04:12:19;;;;;;;9.80;5.70;;;;;;;2.43;77.50;98788.47;5048577;28;20052;-41
2022/02/02 04:55:03;;;;;;;9.15;6.20;;;;;;;2.09;85.75;98786.19;5052697;28;20017;-40
2022/02/02 05:00:44;;;;;;;13.05;6.32;;;;;;;1.97;84.80;98790.22;5034286;28;20029;-57
2022/02/02 05:03:37;;;;;;;8.80;5.28;;;;;;;1.70;86.03;98787.03;5052206;28;20040;-55
2022/02/02 05:14:35;;;;;;;13.50;6.88;;;;;;;2.39;81.93;98789.81;5052092;28;20676;-56
2022/02/02 05:53:20;;;;;;;10.90;6.70;;;;;;;2.48;81.68;98801.09;5051512;28;20025;-56
2022/02/02 05:55:46;;;;;;;12.00;7.05;;;;;;;2.48;81.05;98811.59;5050648;28;20044;-55
2022/02/02 05:58:11;;;;;;;11.23;6.78;;;;;;;2.34;81.58;98813.13;5048736;28;20032;-56
2022/02/02 06:00:38;;;;;;;13.93;7.75;;;;;;;2.31;82.45;98816.13;5050914;28;20032;-56
2022/02/02 06:03:10;;;;;;;10.48;6.68;;;;;;;2.22;81.92;98817.16;5050891;28;20025;-55
2022/02/02 06:05:37;;;;;;;14.80;7.20;;;;;;;2.45;79.98;98825.06;5050819;28;20170;-55
2022/02/02 06:08:03;;;;;;;13.75;6.88;;;;;;;2.47;79.13;98820.44;5050689;28;20485;-55
2022/02/02 06:10:28;;;;;;;49.17;23.77;;;;;;;2.53;80.30;98814.50;5050708;28;20060;-56
2022/02/02 06:12:54;;;;;;;20.65;11.25;;;;;;;2.62;79.06;98818.69;5033157;28;20499;-40
2022/02/02 06:15:20;;;;;;;23.83;12.30;;;;;;;2.77;78.79;98821.41;5050535;28;20432;-41
2022/02/02 06:17:50;;;;;;;12.85;7.55;;;;;;;2.59;79.33;98836.63;5049139;28;20025;-39
2022/02/02 06:20:16;;;;;;;11.07;7.05;;;;;;;2.43;79.21;98832.28;5050663;28;20037;-41
2022/02/02 06:22:43;;;;;;;15.07;8.35;;;;;;;2.93;77.92;98834.41;5050381;28;20079;-40
2022/02/02 06:25:29;;;;;;;15.60;8.50;;;;;;;3.13;75.93;98836.56;5050033;28;20029;-40
2022/02/02 06:27:59;;;;;;;15.60;8.57;;;;;;;2.85;77.48;98836.28;5049141;28;20029;-40
2022/02/02 06:30:26;;;;;;;17.33;9.65;;;;;;;2.94;77.35;98835.22;5050160;28;20025;-41
2022/02/02 06:32:52;;;;;;;15.60;9.38;;;;;;;3.06;76.82;98846.13;5048758;28;20059;-41
2022/02/02 06:35:21;;;;;;;18.65;10.38;;;;;;;2.71;78.89;98849.19;5049820;28;20125;-41
2022/02/02 06:37:47;;;;;;;20.50;11.32;;;;;;;2.65;78.65;98844.63;5050064;28;20033;-40
2022/02/02 06:40:13;;;;;;;21.60;11.73;;;;;;;2.62;79.07;98847.59;5049642;28;20473;-41
2022/02/02 06:42:39;;;;;;;19.33;10.88;;;;;;;2.22;79.55;98844.22;5050179;28;20029;-41
2022/02/02 06:45:05;;;;;;;20.02;11.98;;;;;;;2.67;79.54;98847.09;5049645;28;20024;-40
2022/02/02 06:47:31;;;;;;;30.92;17.15;;;;;;;2.86;77.67;98857.13;5050023;28;20037;-40
2022/02/02 06:50:06;;;;;;;37.53;19.83;;;;;;;2.74;77.34;98848.00;5049981;28;20028;-40
2022/02/02 06:52:46;;;;;;;21.73;12.48;;;;;;;2.60;79.42;98852.22;5049572;28;20068;-40
2022/02/02 06:55:24;;;;;;;39.05;19.85;;;;;;;2.82;77.80;98847.97;5048153;28;20498;-41
2022/02/02 06:58:15;;;;;;;24.80;13.90;;;;;;;2.93;78.46;98857.25;5049492;28;20033;-41
2022/02/02 07:04:09;;;;;;;29.70;14.75;;;;;;;2.47;81.04;98871.16;5047205;28;20224;-41
2022/02/02 07:06:51;;;;;;;24.52;13.65;;;;;;;2.56;80.00;98871.94;5049880;28;20025;-41
2022/02/02 07:12:04;;;;;;;36.15;17.50;;;;;;;2.86;82.50;98862.38;5049735;28;20453;-40
2022/02/02 07:19:54;;;;;;;25.30;12.45;;;;;;;2.87;82.85;98863.19;5048224;28;20174;-39
2022/02/02 07:32:34;;;;;;;18.05;10.23;;;;;;;2.13;84.15;98874.94;5049190;28;20456;-56
2022/02/02 07:37:36;;;;;;;17.67;10.02;;;;;;;1.88;84.72;98879.44;5047949;28;20035;-56
2022/02/02 07:40:04;;;;;;;18.92;11.27;;;;;;;1.85;85.51;98868.50;5049284;28;20029;-57
2022/02/02 07:42:30;;;;;;;20.45;10.50;;;;;;;1.81;85.77;98873.25;5049473;28;20025;-56
2022/02/02 07:45:08;;;;;;;34.53;18.90;;;;;;;2.02;85.27;98869.22;5049331;28;20546;-55
2022/02/02 07:47:38;;;;;;;28.30;13.65;;;;;;;2.01;85.42;98872.84;5046801;28;20024;-56
2022/02/02 07:50:04;;;;;;;18.65;10.60;;;;;;;1.99;85.64;98880.88;5048735;28;20021;-56
2022/02/02 07:52:30;;;;;;;20.25;10.68;;;;;;;2.13;83.88;98882.81;5048807;28;20060;-56
2022/02/02 07:54:59;;;;;;;19.80;10.50;;;;;;;2.13;84.61;98884.59;5049305;28;20488;-56
2022/02/02 07:57:27;;;;;;;20.77;10.27;;;;;;;2.11;84.59;98866.44;5053215;28;20020;-56
2022/02/02 07:59:55;;;;;;;18.98;10.10;;;;;;;2.19;84.74;98875.22;5052054;28;20458;-56
2022/02/02 08:02:34;;;;;;;17.38;10.10;;;;;;;2.31;85.19;98879.13;5052583;28;20120;-56
2022/02/02 08:05:02;;;;;;;18.88;9.95;;;;;;;2.20;83.98;98882.94;5051174;28;20029;-56
2022/02/02 08:07:33;;;;;;;15.77;9.30;;;;;;;2.27;82.90;98875.22;5052359;28;20025;-57
2022/02/02 08:10:18;;;;;;;19.52;11.25;;;;;;;2.22;82.28;98873.09;5051271;28;20048;-57
2022/02/02 08:12:55;;;;;;;18.77;10.05;;;;;;;2.58;82.61;98875.22;5051529;28;20489;-56
2022/02/02 08:15:22;;;;;;;18.55;9.90;;;;;;;2.66;81.19;98883.03;5052578;28;20021;-56
2022/02/02 08:17:50;;;;;;;19.75;9.93;;;;;;;2.72;80.90;98878.91;5049766;28;20021;-56
2022/02/02 08:20:15;;;;;;;18.05;9.73;;;;;;;2.27;82.02;98885.72;5052593;28;20029;-56
2022/02/02 08:22:41;;;;;;;16.58;9.13;;;;;;;2.10;83.93;98892.84;5051356;28;20028;-55
2022/02/02 08:25:07;;;;;;;16.50;9.32;;;;;;;2.33;83.10;98882.41;5052632;28;20036;-54
2022/02/02 08:27:39;;;;;;;17.23;9.50;;;;;;;2.46;82.30;98890.53;5052332;28;20017;-54
2022/02/02 08:30:15;;;;;;;14.38;8.10;;;;;;;2.63;80.17;98887.84;5051940;28;20139;-56
2022/02/02 08:32:50;;;;;;;15.43;8.77;;;;;;;2.62;80.34;98887.00;5052347;28;20033;-54
2022/02/02 08:35:16;;;;;;;15.65;8.98;;;;;;;2.68;79.77;98896.81;5052591;28;20031;-53
2022/02/02 08:37:45;;;;;;;15.43;8.75;;;;;;;2.57;80.67;98891.13;5050880;28;20024;-53
2022/02/02 08:40:26;;;;;;;;;;;;;;;2.89;79.46;98898.00;5052354;28;20047;-50
2022/02/02 08:42:52;;;;;;;17.08;9.65;;;;;;;2.44;81.48;98905.66;5050353;28;20137;-53
2022/02/02 08:45:25;;;;;;;16.98;9.43;;;;;;;2.69;79.72;98901.09;5052006;28;20025;-51
2022/02/02 08:47:58;;;;;;;14.73;8.70;;;;;;;2.29;82.08;98904.75;5051830;28;20020;-52
2022/02/02 08:50:40;;;;;;;17.55;9.32;;;;;;;2.42;81.52;98901.56;5052339;28;20094;-50
2022/02/02 08:53:16;;;;;;;17.00;9.98;;;;;;;2.52;81.24;98900.34;5051899;28;20025;-53
2022/02/02 08:58:23;;;;;;;16.00;9.00;;;;;;;2.81;81.47;98908.59;5052542;28;20179;-53
2022/02/02 09:00:51;;;;;;;15.32;8.70;;;;;;;2.28;81.26;98906.53;5051692;28;20428;-53
2022/02/02 09:06:00;;;;;;;17.02;8.88;;;;;;;2.81;79.06;98905.94;5031919;28;20036;-53
2022/02/02 09:08:29;;;;;;;16.17;9.23;;;;;;;2.53;80.16;98909.88;5035718;28;20013;-52
2022/02/02 09:24:22;;;;;;;16.60;8.63;;;;;;;2.83;80.53;98910.03;5051185;28;20021;-52
2022/02/02 09:34:44;;;;;;;16.67;9.50;;;;;;;3.30;87.26;98901.16;5049913;28;20056;-53
2022/02/02 09:37:10;;;;;;;13.18;7.95;;;;;;;2.89;83.54;98895.38;5050259;28;20453;-54
2022/02/02 09:39:43;;;;;;;16.08;8.30;;;;;;;2.68;84.16;98894.19;5049937;28;20393;-52
2022/02/02 09:42:14;;;;;;;14.23;8.15;;;;;;;2.59;85.27;98891.78;5049657;28;20040;-53
2022/02/02 09:44:43;;;;;;;14.55;8.40;;;;;;;2.68;85.82;98891.56;5048286;28;20044;-54
2022/02/02 09:47:35;;;;;;;16.73;9.23;;;;;;;2.76;85.22;98895.97;5050446;28;20021;-54
2022/02/02 09:50:03;;;;;;;14.93;9.13;;;;;;;2.69;85.27;98882.69;5048196;28;20044;-54
2022/02/02 09:52:36;;;;;;;15.40;8.57;;;;;;;2.69;86.08;98887.16;5048784;28;20024;-51
2022/02/02 09:55:15;;;;;;;25.75;15.15;;;;;;;2.85;85.42;98876.50;5049753;28;20040;-52
2022/02/02 10:03:35;;;;;;;18.40;9.82;;;;;;;2.69;85.91;98880.06;5050725;28;20032;-39
2022/02/02 10:06:08;;;;;;;20.00;10.18;;;;;;;2.69;85.76;98880.06;5030395;28;20099;-39
2022/02/02 10:14:16;;;;;;;18.70;10.38;;;;;;;2.81;84.79;98866.53;5050511;28;20033;-54
2022/02/02 10:16:48;;;;;;;19.00;10.40;;;;;;;2.77;84.61;98862.63;5050386;28;20028;-51
2022/02/02 10:19:17;;;;;;;20.45;11.05;;;;;;;2.72;85.19;98865.75;5049540;28;20025;-54
2022/02/02 10:21:42;;;;;;;20.07;11.13;;;;;;;2.41;86.20;98855.28;5049919;28;20032;-51
2022/02/02 10:24:08;;;;;;;21.08;10.93;;;;;;;2.51;85.76;98851.47;5050875;28;20017;-54
2022/02/02 10:26:33;;;;;;;24.70;12.07;;;;;;;2.47;86.04;98855.41;5051845;28;20090;-53
2022/02/02 10:29:07;;;;;;;25.38;13.32;;;;;;;2.49;86.50;98849.97;5046924;28;20082;-51
2022/02/02 10:31:46;;;;;;;24.67;11.82;;;;;;;2.62;85.79;98852.84;5059279;28;20399;-54
2022/02/02 10:34:16;;;;;;;21.20;10.85;;;;;;;2.70;85.36;98838.84;5053593;28;20082;-54
2022/02/02 10:36:42;;;;;;;26.13;13.75;;;;;;;2.70;84.72;98842.31;5066068;28;20055;-55
2022/02/02 10:39:12;;;;;;;21.38;11.40;;;;;;;2.58;85.73;98838.44;5055854;28;20211;-52
2022/02/02 10:41:54;;;;;;;18.02;10.50;;;;;;;2.54;85.34;98845.03;5059260;28;20075;-54
2022/02/02 10:44:24;;;;;;;19.83;10.50;;;;;;;2.48;85.04;98845.72;5053022;28;20446;-53
2022/02/02 10:51:56;;;;;;;21.45;11.32;;;;;;;2.86;83.72;98830.84;5061896;28;20088;-52
2022/02/02 11:07:14;;;;;;;20.05;10.90;;;;;;;3.02;83.10;98832.53;5073749;28;20044;-52
2022/02/02 11:09:39;;;;;;;17.75;9.40;;;;;;;2.80;84.46;98820.22;5086803;28;20111;-54
2022/02/02 11:12:05;;;;;;;18.10;10.15;;;;;;;2.85;83.37;98823.94;5069557;28;20144;-53
2022/02/02 11:14:42;;;;;;;16.70;9.38;;;;;;;2.90;83.41;98826.06;5047797;28;20116;-54
2022/02/02 11:17:13;;;;;;;17.67;10.10;;;;;;;3.19;83.36;98819.25;5048009;28;20068;-54
2022/02/02 11:19:39;;;;;;;16.42;9.32;;;;;;;3.24;82.73;98822.97;5059674;28;20120;-51
2022/02/02 11:22:22;;;;;;;16.52;9.40;;;;;;;3.31;81.85;98828.34;5054018;28;20320;-54
2022/02/02 11:24:48;;;;;;;21.00;10.90;;;;;;;3.21;82.44;98825.16;5065528;28;20392;-53
2022/02/02 11:27:42;;;;;;;22.35;12.60;;;;;;;3.02;82.33;98822.00;5056155;28;20077;-54
2022/02/02 11:30:08;;;;;;;16.27;9.23;;;;;;;3.18;81.71;98820.25;5054147;28;20354;-54
2022/02/02 11:32:42;;;;;;;17.35;9.75;;;;;;;3.01;81.61;98817.75;5066242;28;20032;-52
2022/02/02 11:38:08;;;;;;;17.52;9.75;;;;;;;3.38;82.02;98816.09;5056124;28;20037;-51
2022/02/02 11:40:42;;;;;;;16.05;8.98;;;;;;;2.98;82.96;98810.22;5066118;28;20024;-53
2022/02/02 11:43:13;;;;;;;17.95;9.88;;;;;;;3.39;81.13;98809.88;5055801;28;20028;-53
2022/02/02 11:45:42;;;;;;;17.85;9.80;;;;;;;3.22;81.22;98809.19;5059422;28;20722;-53
2022/02/02 11:48:18;;;;;;;18.33;9.70;;;;;;;3.35;80.48;98803.34;5063624;28;20036;-51
2022/02/02 11:50:53;;;;;;;17.92;10.30;;;;;;;3.07;81.61;98797.84;5051189;28;20050;-53
2022/02/02 11:53:55;;;;;;;16.58;10.35;;;;;;;3.34;80.59;98799.06;5061929;28;20025;-50
2022/02/02 11:56:27;;;;;;;18.42;9.90;;;;;;;3.49;80.46;98794.63;5065540;28;20056;-50
2022/02/02 11:58:52;;;;;;;17.58;9.90;;;;;;;3.24;80.73;98799.31;5037511;28;20055;-50
2022/02/02 12:01:42;;;;;;;17.83;9.93;;;;;;;3.37;81.34;98789.97;5061712;28;20017;-52
2022/02/02 12:04:24;;;;;;;23.65;12.57;;;;;;;3.91;78.16;98787.06;5063329;28;20025;-52
2022/02/02 12:09:27;;;;;;;20.83;10.88;;;;;;;4.03;79.02;98782.16;5063834;28;20063;-53
2022/02/02 12:35:54;;;;;;;17.40;10.10;;;;;;;4.02;76.85;98788.44;5064795;28;20030;-53
2022/02/02 12:57:21;;;;;;;16.63;9.60;;;;;;;4.22;75.76;98799.19;5062702;28;20445;-52
2022/02/02 13:02:14;;;;;;;17.40;9.20;;;;;;;4.28;77.00;98807.19;5056518;28;20021;-52
2022/02/02 13:04:41;;;;;;;15.05;8.70;;;;;;;4.53;75.07;98801.53;5067738;28;20085;-54
2022/02/02 13:07:19;;;;;;;20.15;10.48;;;;;;;4.72;77.93;98794.81;5057504;28;20077;-53
2022/02/02 13:09:50;;;;;;;16.05;9.48;;;;;;;4.84;73.02;98788.06;5067778;28;20032;-51
2022/02/02 13:12:23;;;;;;;18.90;10.38;;;;;;;4.93;73.54;98780.84;5056019;28;20496;-52
2022/02/02 13:21:07;;;;;;;19.80;11.50;;;;;;;5.45;76.08;98791.97;5067729;28;20415;-53
2022/02/02 13:26:28;;;;;;;18.83;10.68;;;;;;;4.62;78.07;98784.59;5054217;28;20028;-51
2022/02/02 13:29:02;;;;;;;18.15;11.02;;;;;;;4.24;79.41;98787.44;5039672;28;20468;-48
2022/02/02 13:31:53;;;;;;;21.17;11.50;;;;;;;4.11;79.96;98782.88;5062057;28;20031;-49
2022/02/02 13:43:53;;;;;;;23.73;13.15;;;;;;;3.73;82.40;98792.69;5039956;28;20489;-52
2022/02/02 13:49:11;;;;;;;20.92;12.32;;;;;;;3.76;83.18;98787.09;5037924;28;20362;-50
2022/02/02 13:52:20;;;;;;;24.13;13.43;;;;;;;4.09;82.03;98776.13;5060460;28;20194;-50
2022/02/02 13:54:47;;;;;;;20.48;11.63;;;;;;;3.50;83.56;98785.75;5066546;28;20036;-50
2022/02/02 13:57:43;;;;;;;19.58;11.20;;;;;;;3.50;83.18;98783.13;5057484;28;20599;-50
2022/02/02 14:08:56;;;;;;;21.90;11.13;;;;;;;4.00;80.76;98780.72;5059139;28;20504;-50
2022/02/02 14:11:22;;;;;;;21.95;11.60;;;;;;;3.83;81.36;98782.72;5065849;28;20055;-50
2022/02/02 14:32:37;;;;;;;18.92;10.70;;;;;;;3.90;79.60;98788.91;5066400;28;20055;-50
2022/02/02 14:35:04;;;;;;;19.98;11.13;;;;;;;4.09;78.53;98789.31;5055379;28;20032;-50
2022/02/02 14:37:38;;;;;;;21.40;11.20;;;;;;;3.91;79.76;98792.34;5060419;28;20033;-51
2022/02/02 14:40:14;;;;;;;21.48;12.30;;;;;;;4.05;79.68;98798.56;5063665;28;20403;-50
2022/02/02 14:42:42;;;;;;;20.92;11.90;;;;;;;3.74;80.35;98796.16;5053665;28;20040;-52
2022/02/02 14:45:12;;;;;;;20.42;12.20;;;;;;;3.82;80.04;98794.25;5064554;28;20039;-50
2022/02/02 14:47:42;;;;;;;20.77;12.35;;;;;;;3.89;79.42;98792.53;5061162;28;20024;-50
2022/02/02 14:50:56;;;;;;;;;;;;;;;3.77;80.32;98786.09;5056237;28;20036;-52
2022/02/02 15:07:31;;;;;;;27.67;14.43;;;;;;;3.72;81.35;98788.47;5065162;28;20166;-52
2022/02/02 15:32:55;;;;;;;22.25;12.70;;;;;;;3.49;80.86;98789.34;5036501;28;20105;-50
2022/02/02 15:35:22;;;;;;;23.35;12.70;;;;;;;3.61;79.83;98791.53;5060653;28;20032;-53
2022/02/02 15:37:58;;;;;;;22.92;12.90;;;;;;;3.28;80.84;98784.81;5058802;28;20021;-51
2022/02/02 15:41:02;;;;;;;28.23;12.88;;;;;;;3.24;81.62;98791.44;5052237;28;20043;-53
2022/02/02 16:02:29;;;;;;;16.60;8.80;;;;;;;3.43;76.06;98789.28;5050277;28;20465;-54
2022/02/02 16:04:58;;;;;;;18.50;9.77;;;;;;;3.31;75.51;98781.00;5038308;28;20090;-55
2022/02/02 16:07:28;;;;;;;21.67;11.40;;;;;;;3.34;75.77;98799.06;5059187;28;20025;-53
2022/02/02 16:09:58;;;;;;;28.20;14.32;;;;;;;3.19;76.21;98798.22;5059436;28;20055;-53
2022/02/02 16:12:43;;;;;;;19.58;10.93;;;;;;;3.51;75.20;98800.50;5052795;28;20036;-50
2022/02/02 16:36:05;;;;;;;17.52;9.60;;;;;;;3.70;69.84;98808.88;5066183;28;20480;-52
2022/02/02 16:38:34;;;;;;;19.23;10.07;;;;;;;4.11;68.67;98816.25;5055782;28;20072;-49
2022/02/02 16:41:03;;;;;;;21.02;10.90;;;;;;;4.06;67.57;98808.94;5067476;28;20025;-51
2022/02/02 16:43:29;;;;;;;20.40;10.27;;;;;;;3.80;67.78;98805.97;5052518;28;20035;-50
2022/02/02 16:45:54;;;;;;;21.17;10.27;;;;;;;4.01;67.49;98815.75;5052188;28;20033;-50
2022/02/02 16:48:21;;;;;;;18.88;9.75;;;;;;;4.20;66.43;98814.34;5068518;28;20451;-53
2022/02/02 16:50:49;;;;;;;18.45;10.18;;;;;;;4.27;66.04;98810.00;5055374;28;20021;-53
2022/02/02 16:55:54;;;;;;;18.00;9.90;;;;;;;4.05;65.19;98827.53;5063419;28;20036;-53
2022/02/02 17:30:45;;;;;;;103.43;42.00;;;;;;;4.17;64.01;98856.84;5067590;28;20492;-51
2022/02/02 17:33:37;;;;;;;54.60;25.48;;;;;;;3.99;65.01;98844.88;5057510;28;20318;-52
2022/02/02 17:46:02;;;;;;;89.47;34.60;;;;;;;4.16;63.53;98863.94;5050860;28;20142;-52
2022/02/02 18:20:43;;;;;;;21.77;10.48;;;;;;;4.01;63.48;98852.59;5054766;28;20044;-48
2022/02/02 18:25:45;;;;;;;27.20;14.55;;;;;;;3.89;64.66;98852.25;5050911;28;20516;-53
2022/02/02 18:28:23;;;;;;;25.23;13.05;;;;;;;4.10;64.25;98854.97;5065536;28;20100;-51
2022/02/02 18:31:06;;;;;;;31.58;17.58;;;;;;;3.91;65.42;98858.97;5030924;28;20021;-38
2022/02/02 18:46:48;;;;;;;17.35;9.30;;;;;;;3.91;64.37;98882.66;5054087;28;20025;-38
2022/02/02 18:54:21;;;;;;;18.02;9.55;;;;;;;4.16;63.83;98892.09;5064904;28;20093;-38
2022/02/02 19:00:02;;;;;;;19.70;10.27;;;;;;;4.16;63.22;98892.09;5062836;28;20287;-38
2022/02/02 19:37:57;;;;;;;16.10;9.70;;;;;;;3.84;62.48;98907.25;5058365;28;20098;-52
2022/02/02 19:40:31;;;;;;;18.23;9.85;;;;;;;3.90;63.55;98912.63;5064649;28;20548;-51
2022/02/02 19:56:44;;;;;;;16.13;8.57;;;;;;;4.16;63.10;98915.81;5058449;28;20017;-50
2022/02/02 20:05:02;;;;;;;17.95;9.60;;;;;;;4.24;63.52;98924.41;5052151;28;20036;-49
2022/02/02 20:12:35;;;;;;;18.95;9.68;;;;;;;3.92;63.69;98921.16;5050038;28;20100;-50
2022/02/02 20:15:01;;;;;;;19.42;10.80;;;;;;;4.02;63.67;98923.53;5047741;28;20044;-49
2022/02/02 20:17:27;;;;;;;20.38;11.32;;;;;;;4.06;66.26;98921.34;5049586;28;20029;-50
2022/02/02 20:19:59;;;;;;;22.75;11.82;;;;;;;3.92;65.29;98926.41;5049460;28;20029;-51
2022/02/02 20:22:28;;;;;;;53.58;28.45;;;;;;;4.26;66.87;98935.56;5050336;28;20446;-52
2022/02/02 20:24:59;;;;;;;27.52;12.57;;;;;;;4.29;63.98;98931.78;5050250;28;20101;-52
2022/02/02 20:27:25;;;;;;;23.85;11.57;;;;;;;3.92;64.40;98936.94;5050052;28;20067;-51
2022/02/02 20:29:51;;;;;;;37.13;18.77;;;;;;;3.74;65.12;98941.72;5049899;28;20036;-50
2022/02/02 20:32:16;;;;;;;23.90;12.65;;;;;;;3.74;64.71;98938.28;5049752;28;20017;-53
2022/02/02 20:34:42;;;;;;;23.50;11.63;;;;;;;3.77;64.87;98933.47;5051234;28;20050;-49
2022/02/02 20:37:08;;;;;;;22.08;11.32;;;;;;;3.59;65.07;98925.91;5049554;28;20405;-48
2022/02/02 20:39:43;;;;;;;21.98;11.70;;;;;;;3.78;64.59;98929.03;5049555;28;20029;-54
2022/02/02 20:42:10;;;;;;;22.65;11.77;;;;;;;3.39;66.03;98933.47;5048540;28;20031;-52
2022/02/02 20:44:51;;;;;;;24.58;11.68;;;;;;;3.18;66.38;98928.03;5050688;28;20028;-52
2022/02/02 21:00:19;;;;;;;25.73;12.70;;;;;;;2.72;67.48;98892.88;5051515;28;20544;-53
2022/02/02 21:08:57;;;;;;;25.38;12.15;;;;;;;3.06;66.90;98925.00;5066228;28;20025;-52
2022/02/02 21:14:09;;;;;;;25.25;11.95;;;;;;;3.04;67.26;98921.72;5066516;28;20082;-52
2022/02/02 21:16:37;;;;;;;20.80;10.88;;;;;;;3.05;66.50;98924.19;5055740;28;20033;-52
2022/02/02 21:19:07;;;;;;;19.38;11.18;;;;;;;3.17;66.84;98923.78;5066305;28;20064;-40
2022/02/02 21:21:39;;;;;;;20.75;10.65;;;;;;;2.91;67.00;98923.16;5052837;28;20044;-38
2022/02/02 21:29:23;;;;;;;;;;;;;;;3.15;66.20;98937.09;5050700;28;20039;-52
2022/02/02 21:31:49;;;;;;;18.45;10.00;;;;;;;3.25;65.63;98934.25;5063759;28;19908;-51
2022/02/02 21:34:15;;;;;;;19.02;10.13;;;;;;;3.06;66.60;98941.59;5068033;28;20020;-49
2022/02/02 21:36:40;;;;;;;17.38;9.65;;;;;;;3.39;65.24;98920.34;5055483;28;20112;-38
2022/02/02 21:39:08;;;;;;;19.30;9.25;;;;;;;3.53;65.03;98932.69;5065521;28;20024;-51
2022/02/02 21:41:39;;;;;;;17.58;9.18;;;;;;;3.57;64.08;98929.72;5061968;28;20036;-37
2022/02/02 21:44:06;;;;;;;20.65;9.80;;;;;;;3.21;65.35;98939.03;5057576;28;20068;-38
2022/02/02 21:46:31;;;;;;;19.40;9.43;;;;;;;3.41;65.08;98942.00;5068306;28;20032;-52
2022/02/02 21:48:59;;;;;;;17.27;9.15;;;;;;;3.42;64.47;98937.56;5038545;28;20053;-50
2022/02/02 21:51:31;;;;;;;18.13;8.95;;;;;;;3.27;65.43;98935.69;5062890;28;20473;-38
2022/02/02 21:53:57;;;;;;;14.38;8.63;;;;;;;3.20;65.10;98936.56;5053424;28;20029;-38
2022/02/02 21:56:23;;;;;;;14.60;8.05;;;;;;;3.38;65.20;98942.34;5068491;28;20470;-37
2022/02/02 21:58:48;;;;;;;13.55;7.28;;;;;;;3.10;65.62;98936.81;5071565;28;20038;-37
2022/02/02 22:01:14;;;;;;;17.13;7.38;;;;;;;3.14;65.71;98938.09;5069188;28;20036;-49
2022/02/02 22:03:40;;;;;;;15.30;7.20;;;;;;;3.37;64.81;98940.75;5060151;28;20656;-49
2022/02/02 22:06:05;;;;;;;13.70;7.30;;;;;;;3.52;64.41;98938.97;5065359;28;20074;-37
2022/02/02 22:08:31;;;;;;;15.27;7.90;;;;;;;3.32;65.02;98946.50;5054865;28;20052;-37
2022/02/02 22:10:56;;;;;;;14.98;7.85;;;;;;;3.64;64.66;98934.09;5066085;28;20077;-37
2022/02/02 22:13:29;;;;;;;15.35;8.07;;;;;;;3.33;65.12;98947.31;5059252;28;20039;-37
2022/02/02 22:15:55;;;;;;;15.43;7.60;;;;;;;3.07;65.92;98955.56;5057622;28;20036;-37
2022/02/02 22:18:21;;;;;;;13.93;7.90;;;;;;;3.21;66.17;98961.88;5067472;28;20033;-38
2022/02/02 22:20:49;;;;;;;16.55;8.00;;;;;;;3.44;65.43;98962.69;5031226;28;20033;-38
2022/02/02 22:23:15;;;;;;;13.75;7.45;;;;;;;3.10;65.84;98963.09;5045368;28;20050;-37
2022/02/02 22:25:41;;;;;;;16.33;8.40;;;;;;;3.32;65.59;98956.22;5059983;28;20532;-37
2022/02/02 22:28:07;;;;;;;17.58;7.47;;;;;;;3.15;66.17;98970.47;5065595;28;20021;-37
2022/02/02 22:30:32;;;;;;;13.38;7.60;;;;;;;3.23;65.86;98967.78;5053874;28;20040;-37
2022/02/02 22:32:58;;;;;;;15.43;7.47;;;;;;;3.39;65.58;98972.09;5051828;28;20183;-37
2022/02/02 22:35:23;;;;;;;15.65;7.68;;;;;;;3.29;66.20;98977.59;5050710;28;20017;-37
2022/02/02 22:37:49;;;;;;;14.68;7.10;;;;;;;2.99;66.48;98969.59;5051798;28;20024;-38